Latest Coastal Weather Observations for Ceduna

IDS60701

Issued at 4:45 pm CDT Saturday 29 November 2014 (issued every 10 minutes, with the page automatically refreshed every 10 minutes)

About coastal observations | Map of coastal stations | Coastal observations for SA | Marine services | Other Formats
Station Details ID: 018012 Name: CEDUNA AMO Lat: -32.13 Lon: 133.70 Height: 15.3 m
Data from the previous 72 hours. | See also: Recent months at Ceduna
Date/Time
CDT
Temp

°C
Wind Pressure Rain
since 9am
mm
Weather Cloud Vis
km
Sea
Height
m
Swell
Dir
 
Speed
knots
Gust
knots
hPa Trend Height
m
Period
s
Dir
29/04:30pm 29.7 S 15 19 1004.9 - 0.0 - - 10 - - - -
29/04:00pm 29.8 S 15 20 1005.3 - 0.0 - - 10 - - - -
29/03:30pm 30.0 SSW 12 15 1005.6 - 0.0 - - 10 - - - -
29/03:00pm 29.7 SSW 12 16 1005.6 F 0.0 - Mostly cloudy 10 - - - -
29/02:59pm 30.1 SSW 12 16 1005.6 - 0.0 - - 10 - - - -
29/02:30pm 36.0 N 14 24 1005.4 - 0.0 - - 10 - - - -
29/02:04pm 36.6 NNW 16 26 1005.6 - 0.0 - - 10 - - - -
29/02:00pm 36.3 NNW 17 23 1005.6 - 0.0 - - 10 - - - -
29/01:30pm 36.0 N 15 24 1005.8 - 0.0 - - 10 - - - -
29/01:00pm 36.7 N 19 26 1006.3 - 0.0 - - 10 - - - -
29/12:48pm 37.1 N 18 28 1006.5 - 0.0 - - 10 - - - -
29/12:30pm 36.4 N 19 25 1006.6 - 0.0 - - 10 - - - -
29/12:00pm 35.5 N 19 27 1007.2 F 0.0 - - 10 - - - -
29/11:30am 33.5 N 18 25 1007.7 - 0.0 - - 10 - - - -
29/11:00am 33.1 N 18 25 1008.4 - 0.0 - - 10 - - - -
29/10:43am 32.7 N 17 27 1008.6 - 0.0 - - 10 - - - -
29/10:30am 32.6 NNW 16 24 1008.5 - 0.0 - - 10 - - - -
29/10:00am 32.7 N 16 21 1008.8 - 0.0 - - 10 - - - -
29/09:30am 30.7 NNW 10 15 1009.4 - 0.0 - - 10 - - - -
29/09:00am 28.4 NE 11 15 1008.6 F 0.0 - Mostly cloudy 10 - - - -
29/08:30am 27.5 ENE 14 19 1008.7 - 0.0 - - 10 - - - -
29/08:00am 27.0 NE 13 17 1008.5 - 0.0 - - 10 - - - -
29/07:30am 26.8 NE 13 17 1008.8 - 0.0 - - 10 - - - -
29/07:00am 26.6 ENE 13 17 1008.1 - 0.0 - - 10 - - - -
29/06:30am 26.4 ENE 15 18 1007.5 - 0.0 - - 10 - - - -
29/06:00am 26.3 ENE 13 16 1007.4 F 0.0 - Cloudy 10 - - - -
29/05:30am 26.0 ENE 14 17 1007.3 - 0.0 - - 10 - - - -
29/05:00am 26.2 ENE 15 18 1007.4 - 0.0 - - 10 - - - -
29/04:30am 27.1 ENE 14 21 1007.4 - 0.0 - - 10 - - - -
29/04:00am 26.0 NE 12 16 1007.7 - 0.0 - - 10 - - - -
29/03:30am 25.7 ENE 11 15 1007.9 - 0.0 - - 10 - - - -
29/03:00am 23.9 ENE 10 12 1007.9 F 0.0 - Cloudy 10 - - - -
29/02:30am 22.8 ENE 8 10 1008.3 - 0.0 - Partly cloudy 10 - - - -
29/02:00am 22.2 E 6 7 1008.7 - 0.0 - - 10 - - - -
29/01:30am 22.9 E 6 7 1009.2 - 0.0 - - 10 - - - -
29/01:00am 22.4 E 6 8 1009.6 - 0.0 - - 10 - - - -
29/12:30am 23.2 ESE 8 9 1009.9 - 0.0 - - 10 - - - -
29/12:00am 24.2 ESE 8 9 1010.2 F 0.0 - Mostly cloudy 10 - - - -
 
Date/Time
CDT
Temp

°C
Wind Pressure Rain
since 9am
mm
Weather Cloud Vis
km
Sea
Height
m
Swell
Dir
 
Speed
knots
Gust
knots
hPa Trend Height
m
Period
s
Dir
28/11:30pm 24.2 ESE 8 9 1010.7 - 0.0 - - 10 - - - -
28/11:00pm 24.5 ESE 6 7 1011.2 - 0.0 - - 10 - - - -
28/10:30pm 25.7 ESE 8 10 1011.0 - 0.0 - - 10 - - - -
28/10:00pm 27.4 SE 8 10 1011.1 - 0.0 - - 10 - - - -
28/09:30pm 27.9 SE 10 12 1010.8 - 0.0 - - 10 - - - -
28/09:00pm 27.6 SE 10 13 1010.7 F 0.0 - Mostly cloudy 10 - - - -
28/08:30pm 27.5 SE 13 17 1010.8 - 0.0 - - 10 - - - -
28/08:00pm 28.4 SSE 13 16 1010.5 - 0.0 - - 10 - - - -
28/07:30pm 31.1 SSE 11 16 1010.2 - 0.0 - - 10 - - - -
28/07:00pm 32.1 SSE 11 16 1010.2 - 0.0 - - 10 - - - -
28/06:30pm 33.7 SSE 14 17 1010.1 - 0.0 - - 10 - - - -
28/06:00pm 33.2 S 14 17 1010.2 F 0.0 - - 10 - - - -
28/05:30pm 32.3 S 15 18 1010.4 - 0.0 - - 10 - - - -
28/05:00pm 33.5 S 13 16 1010.6 - 0.0 - - 10 - - - -
28/04:30pm 34.6 S 13 16 1010.9 - 0.0 - - 10 - - - -
28/04:00pm 34.3 S 13 15 1011.3 - 0.0 - - 10 - - - -
28/03:30pm 34.1 S 14 16 1011.5 - 0.0 - - 10 - - - -
28/03:00pm 35.6 SSW 10 13 1011.8 F 0.0 - Partly cloudy 10 - - - -
28/02:30pm 34.2 W 6 10 1012.3 - 0.0 - - 10 - - - -
28/02:00pm 35.1 W 5 11 1012.8 - 0.0 - - 10 - - - -
28/01:30pm 34.5 NNW 7 10 1013.3 - 0.0 - - 10 - - - -
28/01:00pm 34.1 N 6 12 1014.0 - 0.0 - - 10 - - - -
28/12:30pm 34.0 NNE 9 15 1014.5 - 0.0 - - 10 - - - -
28/12:00pm 32.3 NNE 11 16 1015.1 F 0.0 - Mostly cloudy 10 - - - -
28/11:30am 32.0 N 12 16 1015.5 - 0.0 - - 10 - - - -
28/11:00am 30.8 N 9 13 1015.8 - 0.0 - - 10 - - - -
28/10:30am 29.1 NNE 11 14 1015.8 - 0.0 - - 10 - - - -
28/10:00am 27.0 NNE 10 13 1015.9 - 0.0 - - 10 - - - -
28/09:30am 27.4 NE 9 12 1016.2 - 0.0 - - 10 - - - -
28/09:00am 26.1 NE 11 14 1016.1 F 0.0 - Cloudy 10 - - - -
28/08:30am 23.6 E 6 8 1016.1 - 0.0 - - 10 - - - -
28/08:00am 21.6 ESE 4 5 1016.1 - 0.0 - - 10 - - - -
28/07:30am 17.6 S 1 4 1015.9 - 0.0 - - 10 - - - -
28/07:00am 15.7 ESE 2 3 1015.6 - 0.0 - - 10 - - - -
28/06:30am 15.4 ESE 6 6 1015.3 - 0.0 - - 10 - - - -
28/06:00am 15.5 SE 5 6 1015.3 R 0.0 - Cloudy 10 - - - -
28/05:30am 15.8 SE 4 5 1015.0 - 0.0 - - 10 - - - -
28/05:00am 15.7 ESE 6 7 1014.8 - 0.0 - - 10 - - - -
28/04:30am 15.6 ESE 6 6 1014.9 - 0.0 - - 10 - - - -
28/04:00am 17.0 E 10 11 1014.8 - 0.0 - - 10 - - - -
28/03:30am 17.7 ESE 11 13 1014.9 - 0.0 - - 10 - - - -
28/03:00am 18.0 E 10 11 1015.1 F 0.0 - - 10 - - - -
28/02:30am 18.3 E 6 8 1015.5 - 0.0 - - 10 - - - -
28/02:00am 18.9 ESE 9 12 1015.7 - 0.0 - - 10 - - - -
28/01:30am 19.7 SE 11 13 1015.9 - 0.0 - - 10 - - - -
28/01:00am 19.8 SE 11 13 1016.0 - 0.0 - - 10 - - - -
28/12:30am 19.8 SE 10 12 1016.4 - 0.0 - - 10 - - - -
28/12:00am 19.8 SE 9 12 1016.7 F 0.0 - - 10 - - - -
 
Date/Time
CDT
Temp

°C
Wind Pressure Rain
since 9am
mm
Weather Cloud Vis
km
Sea
Height
m
Swell
Dir
 
Speed
knots
Gust
knots
hPa Trend Height
m
Period
s
Dir
27/11:30pm 20.4 SE 10 13 1017.1 - 0.0 - - 10 - - - -
27/11:00pm 20.4 SE 8 11 1017.3 - 0.0 - - 10 - - - -
27/10:30pm 20.7 SSE 9 12 1017.3 - 0.0 - - 10 - - - -
27/10:00pm 21.3 SE 11 13 1017.3 - 0.0 - - 10 - - - -
27/09:30pm 20.4 SSE 7 10 1017.3 - 0.0 - - 10 - - - -
27/09:00pm 21.0 S 8 10 1017.2 F 0.0 - - 10 - - - -
27/08:30pm 21.4 S 10 13 1017.0 - 0.0 - - 10 - - - -
27/08:00pm 22.1 SSE 13 16 1016.7 - 0.0 - - 10 - - - -
27/07:30pm 23.2 SSE 15 19 1016.6 - 0.0 - - 10 - - - -
27/07:00pm 23.9 SSE 16 21 1016.3 - 0.0 - - 10 - - - -
27/06:30pm 25.1 SSE 19 28 1016.2 - 0.0 - - 10 - - - -
27/06:00pm 25.2 SSE 19 25 1016.5 F 0.0 - - 10 - - - -
27/05:30pm 26.0 SSE 19 25 1016.6 - 0.0 - - 10 - - - -
27/05:00pm 26.5 SSE 18 22 1016.8 - 0.0 - - 10 - - - -
27/04:30pm 25.9 S 17 22 1017.1 - 0.0 - - 10 - - - -
27/04:00pm 26.6 S 16 20 1017.2 - 0.0 - - 10 - - - -
27/03:30pm 25.6 S 17 20 1017.4 - 0.0 - - 10 - - - -
27/03:00pm 26.4 S 15 19 1017.8 F 0.0 Fine Mostly clear 30 - - - -
27/02:30pm 26.7 S 15 18 1018.1 - 0.0 - - 10 - - - -
27/02:00pm 26.9 S 13 17 1018.2 - 0.0 - - 10 - - - -
27/01:30pm 27.4 S 12 16 1018.6 - 0.0 - - 10 - - - -
27/01:00pm 25.8 SSW 13 16 1018.8 - 0.0 - - 10 - - - -
27/12:30pm 25.9 SSW 11 14 1019.1 - 0.0 - - 10 - - - -
27/12:00pm 24.1 SW 12 15 1019.4 F 0.0 Fine Partly cloudy 30 - - - -
27/11:30am 23.2 SW 13 15 1019.7 - 0.0 - - 10 - - - -
27/11:00am 26.8 ESE 5 9 1019.8 - 0.0 - - 10 - - - -
27/10:30am 25.0 ENE 6 10 1020.2 - 0.0 - - 10 - - - -
27/10:00am 23.1 ENE 7 12 1020.5 - 0.0 - - 10 - - - -
27/09:30am 20.8 E 6 9 1020.7 - 0.0 - - 10 - - - -
27/09:00am 20.0 ESE 8 11 1020.8 F 0.0 Fine Partly cloudy 30 - - - -
27/08:30am 18.1 ESE 9 11 1020.7 - 0.0 - - 10 - - - -
27/08:00am 16.0 ESE 9 11 1020.6 - 0.0 - - 10 - - - -
27/07:30am 13.9 ESE 7 9 1020.4 - 0.0 - - 10 - - - -
27/07:00am 12.4 ESE 7 7 1020.4 - 0.0 - - 10 - - - -
27/06:30am 12.1 SE 7 8 1020.1 - 0.0 - - 10 - - - -
27/06:00am 12.2 SE 7 8 1019.9 R 0.0 - - 10 - - - -
27/05:30am 12.7 ESE 7 9 1019.5 - 0.0 - - 10 - - - -
27/05:00am 13.1 ESE 9 11 1019.3 - 0.0 - - 10 - - - -
27/04:30am 13.6 ESE 9 11 1019.1 - 0.0 - - 10 - - - -
27/04:00am 13.6 ESE 9 11 1019.0 - 0.0 - - 10 - - - -
27/03:30am 13.5 ESE 9 12 1018.9 - 0.0 - - 10 - - - -
27/03:00am 13.7 ESE 9 11 1019.1 F 0.0 - - 10 - - - -
27/02:30am 14.3 ESE 10 13 1019.1 - 0.0 - - 10 - - - -
27/02:00am 14.7 SE 10 13 1019.4 - 0.0 - - 10 - - - -
27/01:30am 15.4 SE 11 13 1019.7 - 0.0 - - 10 - - - -
27/01:00am 16.3 SE 11 13 1020.1 - 0.0 - - 10 - - - -
27/12:30am 16.7 SE 10 13 1020.5 - 0.0 - - 10 - - - -
27/12:00am 16.7 SE 10 13 1020.5 F 0.0 - - 10 - - - -
 
Date/Time
CDT
Temp

°C
Wind Pressure Rain
since 9am
mm
Weather Cloud Vis
km
Sea
Height
m
Swell
Dir
 
Speed
knots
Gust
knots
hPa Trend Height
m
Period
s
Dir
26/11:30pm 16.1 SE 9 10 1020.7 - 0.0 - - 10 - - - -
26/11:00pm 16.6 SSE 8 10 1020.7 - 0.0 - - 10 - - - -
26/10:30pm 17.3 SSE 11 15 1020.5 - 0.0 - - 10 - - - -
26/10:00pm 17.3 SSE 12 16 1020.1 - 0.0 - - 10 - - - -
26/09:30pm 17.3 SSE 11 15 1020.3 - 0.0 - - 10 - - - -
26/09:00pm 17.6 SSE 13 18 1020.1 F 0.0 - - 10 - - - -
26/08:30pm 17.9 SSE 13 18 1020.0 - 0.0 - - 10 - - - -
26/08:00pm 18.3 S 15 20 1019.8 - 0.0 - - 10 - - - -
26/07:30pm 18.7 S 18 23 1019.8 - 0.0 - - 10 - - - -
26/07:00pm 18.9 S 21 28 1019.7 - 0.0 - - 10 - - - -
26/06:30pm 19.6 S 19 26 1019.9 - 0.0 - - 10 - - - -
26/06:00pm 20.3 S 20 27 1019.8 S 0.0 - - 10 - - - -
26/05:30pm 19.8 S 21 27 1019.8 - 0.0 - - 10 - - - -
26/05:00pm 20.3 S 21 26 1019.9 - 0.0 - - 10 - - - -

Other Formats:

Comma delimited format used in spreadsheet applications
http://www.bom.gov.au/fwo/IDS60701/IDS60701.94653.axf

JavaScript Object Notation format (JSON) in row-major order
http://www.bom.gov.au/fwo/IDS60701/IDS60701.94653.json